createdAt,value
2023-04-11T00:00:55.549Z,4.20
2023-04-11T00:03:23.550Z,4.05
2023-04-11T00:05:51.194Z,3.88
2023-04-11T00:08:20.157Z,4.95
2023-04-11T00:10:47.704Z,4.10
2023-04-11T00:13:15.273Z,3.90
2023-04-11T00:15:43.088Z,4.10
2023-04-11T00:18:12.534Z,3.83
2023-04-11T00:20:40.064Z,4.35
2023-04-11T00:23:08.592Z,3.65
2023-04-11T00:25:38.128Z,4.03
2023-04-11T00:28:05.782Z,3.63
2023-04-11T00:30:33.332Z,3.90
2023-04-11T00:33:01.148Z,3.63
2023-04-11T00:35:28.647Z,4.00
2023-04-11T00:37:56.377Z,3.60
2023-04-11T00:40:24.070Z,3.60
2023-04-11T00:42:52.980Z,3.33
2023-04-11T00:45:20.705Z,3.45
2023-04-11T00:47:48.384Z,3.60
2023-04-11T00:50:17.052Z,3.27
2023-04-11T00:52:47.964Z,3.45
2023-04-11T00:55:15.602Z,3.17
2023-04-11T00:57:43.284Z,3.22
2023-04-11T01:00:13.877Z,3.13
2023-04-11T01:02:45.038Z,2.97
2023-04-11T01:05:14.660Z,2.80
2023-04-11T01:07:46.331Z,2.92
2023-04-11T01:10:15.999Z,3.05
2023-04-11T01:12:45.001Z,3.28
2023-04-11T01:15:13.919Z,2.60
2023-04-11T01:17:42.482Z,2.90
2023-04-11T01:20:12.947Z,2.88
2023-04-11T01:22:43.544Z,2.55
2023-04-11T01:25:15.505Z,2.97
2023-04-11T01:27:44.860Z,2.60
2023-04-11T01:30:13.352Z,2.60
2023-04-11T01:32:41.202Z,3.10
2023-04-11T01:35:11.132Z,2.95
2023-04-11T01:37:39.107Z,3.00
2023-04-11T01:40:08.631Z,3.10
2023-04-11T01:42:39.150Z,3.10
2023-04-11T01:45:08.366Z,3.13
2023-04-11T01:47:37.194Z,2.90
2023-04-11T01:50:05.386Z,3.20
2023-04-11T01:52:32.919Z,3.00
2023-04-11T01:55:00.436Z,3.25
2023-04-11T01:57:27.976Z,3.20
2023-04-11T01:59:56.881Z,2.90
2023-04-11T02:02:25.985Z,2.95
2023-04-11T02:04:53.615Z,2.60
2023-04-11T02:07:21.685Z,2.70
2023-04-11T02:09:49.226Z,3.20
2023-04-11T02:12:16.810Z,3.10
2023-04-11T02:14:46.168Z,2.80
2023-04-11T02:17:15.534Z,2.93
2023-04-11T02:19:45.330Z,2.67
2023-04-11T02:22:13.235Z,2.72
2023-04-11T02:24:41.180Z,2.42
2023-04-11T02:27:09.302Z,2.40
2023-04-11T02:29:36.894Z,2.83
2023-04-11T02:32:04.588Z,2.47
2023-04-11T02:34:33.523Z,3.00
2023-04-11T02:37:02.836Z,2.70
2023-04-11T02:39:30.432Z,2.65
2023-04-11T02:41:58.152Z,2.50
2023-04-11T02:44:26.260Z,2.63
2023-04-11T02:46:54.962Z,2.90
2023-04-11T02:49:22.770Z,2.65
2023-04-11T02:51:51.693Z,3.08
2023-04-11T02:54:19.236Z,3.10
2023-04-11T02:56:47.186Z,2.78
2023-04-11T02:59:14.808Z,3.28
2023-04-11T03:01:43.407Z,3.08
2023-04-11T03:04:11.155Z,3.17
2023-04-11T03:06:58.246Z,3.47
2023-04-11T03:09:27.359Z,3.28
2023-04-11T03:11:54.949Z,3.10
2023-04-11T03:14:22.583Z,2.55
2023-04-11T03:16:50.536Z,2.20
2023-04-11T03:19:18.194Z,1.83
2023-04-11T03:21:45.782Z,2.25
2023-04-11T03:24:14.980Z,1.90
2023-04-11T03:26:44.453Z,1.60
2023-04-11T03:29:16.470Z,2.00
2023-04-11T03:32:04.305Z,1.87
2023-04-11T03:34:34.759Z,1.73
2023-04-11T03:37:04.788Z,1.60
2023-04-11T03:39:36.136Z,1.48
2023-04-11T03:42:03.836Z,1.52
2023-04-11T03:44:31.997Z,1.40
2023-04-11T03:46:59.834Z,1.50
2023-04-11T03:49:35.086Z,1.60
2023-04-11T03:52:02.669Z,1.50
2023-04-11T03:54:30.935Z,1.60
2023-04-11T03:56:59.807Z,1.50
2023-04-11T03:59:28.804Z,1.50
2023-04-11T04:02:03.673Z,1.30
2023-04-11T04:04:33.440Z,1.60
2023-04-11T04:07:14.340Z,1.40
2023-04-11T04:09:45.038Z,1.40
2023-04-11T04:12:14.101Z,1.55
2023-04-11T04:14:55.543Z,1.40
2023-04-11T04:17:23.235Z,1.35
2023-04-11T04:19:51.612Z,1.35
2023-04-11T04:22:19.775Z,1.50
2023-04-11T04:24:57.908Z,1.50
2023-04-11T04:27:30.202Z,1.40
2023-04-11T04:29:59.705Z,1.48
2023-04-11T04:32:41.133Z,1.23
2023-04-11T04:35:13.882Z,1.33
2023-04-11T04:37:45.776Z,1.40
2023-04-11T04:40:22.583Z,1.50
2023-04-11T04:43:09.001Z,1.50
2023-04-11T04:45:42.610Z,1.80
2023-04-11T04:48:11.329Z,1.57
2023-04-11T04:50:39.187Z,1.20
2023-04-11T04:53:07.375Z,1.45
2023-04-11T04:55:36.448Z,1.40
2023-04-11T04:58:04.564Z,1.50
2023-04-11T05:00:34.216Z,1.50
2023-04-11T05:03:05.660Z,1.70
2023-04-11T05:05:33.499Z,1.42
2023-04-11T05:08:01.954Z,1.55
2023-04-11T05:10:33.517Z,1.90
2023-04-11T05:13:01.149Z,1.40
2023-04-11T05:15:28.707Z,1.80
2023-04-11T05:17:57.670Z,1.65
2023-04-11T05:20:27.048Z,1.80
2023-04-11T05:22:54.811Z,2.03
2023-04-11T05:25:22.963Z,1.73
2023-04-11T05:27:52.237Z,1.70
2023-04-11T05:30:23.837Z,2.10
2023-04-11T05:32:51.758Z,2.00
2023-04-11T05:35:21.338Z,2.00
2023-04-11T05:37:54.387Z,1.90
2023-04-11T05:40:22.073Z,2.05
2023-04-11T05:42:49.705Z,1.90
2023-04-11T05:45:17.372Z,2.10
2023-04-11T05:47:44.996Z,2.35
2023-04-11T05:50:12.572Z,1.63
2023-04-11T05:52:41.490Z,1.95
2023-04-11T05:55:10.074Z,1.80
2023-04-11T05:57:37.633Z,2.00
2023-04-11T06:00:12.748Z,2.00
2023-04-11T06:02:41.051Z,1.90
2023-04-11T06:05:11.103Z,1.70
2023-04-11T06:07:39.261Z,2.20
2023-04-11T06:10:09.816Z,2.20
2023-04-11T06:12:37.786Z,1.98
2023-04-11T06:15:06.494Z,1.80
2023-04-11T06:17:34.056Z,2.20
2023-04-11T06:20:04.798Z,2.38
2023-04-11T06:22:33.661Z,2.00
2023-04-11T06:25:01.240Z,2.10
2023-04-11T06:27:30.479Z,1.80
2023-04-11T06:29:58.025Z,2.20
2023-04-11T06:32:26.247Z,2.30
2023-04-11T06:34:54.031Z,2.00
2023-04-11T06:37:22.907Z,2.78
2023-04-11T06:39:50.423Z,2.50
2023-04-11T06:42:17.933Z,2.00
2023-04-11T06:44:47.527Z,2.50
2023-04-11T06:47:15.215Z,2.38
2023-04-11T06:49:42.867Z,2.70
2023-04-11T06:52:10.599Z,2.43
2023-04-11T06:54:38.110Z,2.42
2023-04-11T06:57:05.700Z,2.40
2023-04-11T06:59:34.766Z,2.30
2023-04-11T07:02:03.700Z,2.50
2023-04-11T07:04:31.491Z,2.40
2023-04-11T07:06:59.096Z,2.67
2023-04-11T07:09:26.603Z,2.53
2023-04-11T07:11:54.128Z,2.60
2023-04-11T07:14:21.635Z,2.30
2023-04-11T07:16:49.226Z,2.63
2023-04-11T07:19:18.105Z,1.90
2023-04-11T07:21:46.002Z,2.60
2023-04-11T07:24:14.057Z,2.65
2023-04-11T07:26:42.263Z,2.72
2023-04-11T07:29:12.280Z,2.00
2023-04-11T07:31:41.872Z,2.30
2023-04-11T07:34:09.527Z,1.90
2023-04-11T07:36:38.537Z,1.58
2023-04-11T07:39:09.122Z,1.60
2023-04-11T07:41:37.257Z,1.30
2023-04-11T07:44:06.423Z,1.30
2023-04-11T07:46:34.449Z,1.45
2023-04-11T07:49:02.113Z,1.30
2023-04-11T07:51:29.778Z,1.42
2023-04-11T07:53:58.860Z,1.20
2023-04-11T07:56:26.607Z,1.33
2023-04-11T07:58:54.160Z,1.50
2023-04-11T08:01:22.956Z,1.38
2023-04-11T08:03:50.854Z,1.50
2023-04-11T08:06:18.493Z,1.40
2023-04-11T08:08:46.324Z,1.40
2023-04-11T08:11:15.400Z,1.58
2023-04-11T08:13:43.078Z,1.40
2023-04-11T08:16:14.887Z,1.33
2023-04-11T08:18:42.936Z,1.60
2023-04-11T08:21:12.054Z,1.35
2023-04-11T08:23:42.169Z,1.50
2023-04-11T08:26:11.657Z,1.60
2023-04-11T08:28:42.680Z,1.85
2023-04-11T08:31:12.789Z,1.60
2023-04-11T08:33:40.960Z,1.42
2023-04-11T08:36:10.007Z,1.77
2023-04-11T08:38:38.095Z,1.50
2023-04-11T08:41:06.095Z,1.77
2023-04-11T08:43:34.705Z,1.33
2023-04-11T08:46:04.838Z,2.55
2023-04-11T08:48:32.894Z,1.70
2023-04-11T08:51:01.104Z,1.60
2023-04-11T08:53:30.128Z,1.90
2023-04-11T08:55:58.801Z,1.70
2023-04-11T08:58:26.604Z,1.80
2023-04-11T09:00:54.439Z,1.92
2023-04-11T09:03:23.455Z,2.00
2023-04-11T09:05:51.313Z,2.00
2023-04-11T09:08:19.532Z,2.10
2023-04-11T09:10:47.139Z,2.00
2023-04-11T09:13:21.701Z,2.40
2023-04-11T09:15:49.558Z,2.50
2023-04-11T09:18:36.930Z,2.92
2023-04-11T09:21:06.287Z,3.03
2023-04-11T09:23:33.968Z,3.08
2023-04-11T09:26:01.605Z,3.85
2023-04-11T09:28:39.745Z,3.35
2023-04-11T09:31:09.543Z,3.20
2023-04-11T09:33:38.480Z,3.30
2023-04-11T09:36:20.162Z,3.20
2023-04-11T09:38:47.708Z,2.95
2023-04-11T09:41:15.557Z,2.78
2023-04-11T09:43:51.153Z,2.75
2023-04-11T09:46:21.066Z,2.50
2023-04-11T09:48:51.253Z,2.72
2023-04-11T09:51:35.292Z,2.50
2023-04-11T09:54:06.124Z,2.40
2023-04-11T09:56:35.392Z,2.55
2023-04-11T09:59:04.648Z,3.03
2023-04-11T10:01:32.513Z,2.60
2023-04-11T10:04:01.903Z,2.60
2023-04-11T10:06:34.160Z,2.80
2023-04-11T10:09:09.383Z,3.20
2023-04-11T10:11:37.458Z,2.70
2023-04-11T10:14:05.245Z,2.50
2023-04-11T10:16:34.368Z,2.50
2023-04-11T10:19:26.019Z,2.42
2023-04-11T10:21:53.578Z,2.60
2023-04-11T10:24:22.062Z,2.70
2023-04-11T10:26:51.743Z,2.33
2023-04-11T10:29:49.935Z,2.40
2023-04-11T10:32:28.805Z,2.45
2023-04-11T10:35:22.788Z,2.40
2023-04-11T10:37:50.451Z,1.80
2023-04-11T10:40:20.485Z,1.63
2023-04-11T10:42:49.081Z,1.60
2023-04-11T10:45:21.808Z,1.80
2023-04-11T10:48:03.616Z,2.00
2023-04-11T10:50:43.800Z,1.60
2023-04-11T10:53:36.359Z,1.75
2023-04-11T10:56:04.417Z,1.80
2023-04-11T10:58:37.665Z,1.80
2023-04-11T11:01:31.376Z,1.88
2023-04-11T11:04:05.814Z,2.00
2023-04-11T11:06:46.130Z,1.90
2023-04-11T11:09:23.117Z,1.73
2023-04-11T11:12:08.750Z,1.42
2023-04-11T11:14:36.381Z,1.98
2023-04-11T11:17:04.549Z,1.73
2023-04-11T11:19:32.583Z,1.98
2023-04-11T11:22:03.878Z,1.60
2023-04-11T11:24:32.121Z,1.40
2023-04-11T11:26:59.913Z,1.50
2023-04-11T11:29:32.106Z,1.30
2023-04-11T11:32:03.093Z,1.50
2023-04-11T11:34:32.075Z,1.50
2023-04-11T11:37:04.312Z,1.30
2023-04-11T11:39:32.595Z,1.95
2023-04-11T11:42:00.836Z,1.20
2023-04-11T11:44:31.059Z,1.17
2023-04-11T11:47:02.913Z,1.10
2023-04-11T11:49:44.325Z,1.20
2023-04-11T11:52:13.785Z,1.10
2023-04-11T11:54:45.371Z,1.00
2023-04-11T11:57:12.909Z,1.13
2023-04-11T11:59:40.800Z,1.40
2023-04-11T12:02:08.614Z,1.00
2023-04-11T12:04:37.870Z,1.00
2023-04-11T12:07:09.576Z,1.10
2023-04-11T12:09:38.427Z,1.00
2023-04-11T12:12:09.708Z,1.00
2023-04-11T12:14:37.265Z,1.33
2023-04-11T12:17:04.833Z,1.30
2023-04-11T12:19:32.370Z,1.07
2023-04-11T12:21:59.903Z,1.10
2023-04-11T12:24:27.434Z,1.00
2023-04-11T12:27:06.284Z,1.08
2023-04-11T12:29:35.066Z,1.45
2023-04-11T12:32:02.624Z,1.20
2023-04-11T12:34:30.132Z,1.30
2023-04-11T12:36:57.999Z,1.23
2023-04-11T12:39:25.778Z,1.33
2023-04-11T12:41:53.540Z,1.25
2023-04-11T12:44:22.449Z,1.30
2023-04-11T12:46:50.041Z,1.40
2023-04-11T12:49:17.557Z,1.30
2023-04-11T12:51:45.178Z,1.38
2023-04-11T12:54:12.921Z,1.52
2023-04-11T12:56:41.029Z,1.27
2023-04-11T12:59:08.593Z,1.63
2023-04-11T13:01:38.033Z,1.30
2023-04-11T13:04:05.925Z,1.30
2023-04-11T13:06:33.946Z,1.48
2023-04-11T13:09:02.357Z,1.40
2023-04-11T13:11:29.888Z,1.60
2023-04-11T13:13:57.420Z,1.63
2023-04-11T13:16:25.074Z,1.60
2023-04-11T13:18:53.961Z,1.70
2023-04-11T13:21:21.685Z,1.57
2023-04-11T13:23:49.190Z,1.90
2023-04-11T13:26:16.827Z,1.90
2023-04-11T13:28:44.308Z,1.95
2023-04-11T13:31:11.955Z,2.00
2023-04-11T13:33:40.458Z,1.70
2023-04-11T13:36:10.935Z,2.08
2023-04-11T13:38:38.479Z,2.00
2023-04-11T13:41:06.413Z,2.10
2023-04-11T13:43:34.101Z,2.20
2023-04-11T13:46:01.621Z,1.70
2023-04-11T13:48:29.203Z,2.03
2023-04-11T13:50:57.515Z,1.83
2023-04-11T13:53:26.539Z,1.70
2023-04-11T13:55:54.058Z,1.95
2023-04-11T13:58:21.662Z,1.70
2023-04-11T14:00:50.271Z,1.95
2023-04-11T14:03:18.154Z,1.80
2023-04-11T14:05:45.836Z,2.00
2023-04-11T14:08:14.814Z,1.70
2023-04-11T14:10:44.129Z,2.00
2023-04-11T14:13:11.870Z,2.05
2023-04-11T14:15:39.472Z,1.98
2023-04-11T14:18:07.048Z,1.77
2023-04-11T14:20:36.449Z,2.10
2023-04-11T14:23:03.989Z,2.30
2023-04-11T14:25:31.555Z,2.13
2023-04-11T14:28:00.568Z,2.60
2023-04-11T14:30:28.190Z,1.88
2023-04-11T14:32:56.357Z,2.10
2023-04-11T14:35:24.145Z,2.10
2023-04-11T14:37:51.671Z,2.00
2023-04-11T14:40:19.452Z,1.92
2023-04-11T14:42:46.990Z,2.30
2023-04-11T14:45:15.887Z,2.35
2023-04-11T14:47:43.540Z,1.80
2023-04-11T14:50:11.854Z,2.17
2023-04-11T14:52:39.443Z,2.00
2023-04-11T14:55:08.598Z,1.90
2023-04-11T14:57:46.862Z,2.40
2023-04-11T15:00:20.344Z,2.30
2023-04-11T15:02:49.466Z,2.45
2023-04-11T15:05:18.033Z,2.45
2023-04-11T15:07:47.536Z,2.20
2023-04-11T15:10:16.099Z,2.40
2023-04-11T15:12:43.635Z,3.10
2023-04-11T15:15:12.436Z,2.38
2023-04-11T15:17:42.986Z,2.33
2023-04-11T15:20:14.253Z,2.30
2023-04-11T15:22:43.313Z,2.35
2023-04-11T15:25:13.014Z,2.80
2023-04-11T15:27:41.028Z,3.25
2023-04-11T15:30:09.877Z,2.90
2023-04-11T15:32:42.308Z,2.38
2023-04-11T15:35:11.535Z,2.38
2023-04-11T15:37:39.054Z,2.37
2023-04-11T15:40:09.130Z,2.10
2023-04-11T15:42:37.562Z,2.45
2023-04-11T15:45:06.054Z,2.80
2023-04-11T15:47:34.296Z,2.40
2023-04-11T15:50:04.542Z,2.40
2023-04-11T15:52:33.433Z,3.13
2023-04-11T15:55:01.002Z,2.60
2023-04-11T15:57:28.616Z,4.10
2023-04-11T15:59:56.320Z,2.83
2023-04-11T16:02:24.006Z,2.47
2023-04-11T16:04:53.977Z,2.70
2023-04-11T16:07:23.068Z,3.00
2023-04-11T16:09:52.147Z,2.80
2023-04-11T16:12:19.660Z,4.15
2023-04-11T16:14:47.178Z,2.93
2023-04-11T16:17:15.284Z,3.30
2023-04-11T16:19:42.778Z,3.42
2023-04-11T16:22:10.363Z,3.10
2023-04-11T16:24:37.941Z,3.10
2023-04-11T16:27:06.814Z,3.13
2023-04-11T16:29:34.452Z,3.10
2023-04-11T16:32:02.163Z,3.00
2023-04-11T16:34:29.871Z,3.83
2023-04-11T16:36:57.956Z,3.50
2023-04-11T16:39:25.492Z,3.20
2023-04-11T16:41:54.408Z,3.08
2023-04-11T16:44:24.778Z,2.40
2023-04-11T16:46:52.311Z,1.80
2023-04-11T16:49:19.926Z,1.92
2023-04-11T16:51:47.420Z,1.70
2023-04-11T16:54:15.891Z,2.00
2023-04-11T16:56:43.441Z,1.80
2023-04-11T16:59:12.162Z,1.75
2023-04-11T17:01:41.828Z,1.63
2023-04-11T17:04:10.252Z,1.60
2023-04-11T17:06:37.934Z,2.05
2023-04-11T17:09:06.312Z,1.98
2023-04-11T17:11:36.179Z,1.73
2023-04-11T17:14:05.345Z,1.77
2023-04-11T17:16:32.894Z,1.90
2023-04-11T17:19:01.772Z,1.75
2023-04-11T17:21:29.332Z,1.75
2023-04-11T17:23:56.945Z,1.60
2023-04-11T17:26:24.750Z,2.22
2023-04-11T17:28:52.368Z,2.10
2023-04-11T17:31:19.951Z,2.92
2023-04-11T17:33:47.840Z,2.05
2023-04-11T17:36:16.815Z,1.92
2023-04-11T17:38:45.240Z,1.80
2023-04-11T17:41:15.400Z,1.93
2023-04-11T17:43:43.421Z,2.10
2023-04-11T17:46:12.376Z,2.10
2023-04-11T17:48:40.147Z,2.13
2023-04-11T17:51:07.896Z,2.10
2023-04-11T17:53:36.901Z,2.40
2023-04-11T17:56:05.679Z,2.17
2023-04-11T17:58:33.691Z,2.20
2023-04-11T18:01:03.015Z,2.40
2023-04-11T18:03:35.074Z,2.35
2023-04-11T18:06:03.075Z,5.93
2023-04-11T18:08:49.001Z,2.63
2023-04-11T18:11:20.122Z,2.78
2023-04-11T18:13:50.046Z,2.33
2023-04-11T18:16:18.293Z,2.90
2023-04-11T18:18:46.847Z,2.47
2023-04-11T18:21:14.400Z,2.88
2023-04-11T18:23:42.004Z,2.95
2023-04-11T18:26:09.521Z,2.85
2023-04-11T18:28:38.445Z,3.63
2023-04-11T18:31:06.778Z,4.33
2023-04-11T18:33:38.946Z,3.45
2023-04-11T18:36:08.339Z,2.90
2023-04-11T18:38:36.084Z,2.65
2023-04-11T18:41:07.130Z,2.90
2023-04-11T18:43:35.496Z,3.60
2023-04-11T18:46:04.430Z,3.25
2023-04-11T18:48:31.988Z,3.15
2023-04-11T18:51:00.463Z,3.03
2023-04-11T18:53:29.778Z,4.38
2023-04-11T18:55:57.741Z,4.07
2023-04-11T18:58:26.950Z,4.25
2023-04-11T19:00:55.806Z,4.10
2023-04-11T19:03:24.856Z,4.25
2023-04-11T19:05:53.087Z,3.80
2023-04-11T19:08:20.939Z,3.73
2023-04-11T19:10:48.452Z,3.80
2023-04-11T19:13:16.073Z,3.88
2023-04-11T19:15:43.738Z,4.43
2023-04-11T19:18:11.353Z,4.00
2023-04-11T19:20:40.502Z,4.07
2023-04-11T19:23:08.063Z,3.80
2023-04-11T19:25:35.896Z,3.70
2023-04-11T19:28:03.786Z,3.65
2023-04-11T19:30:31.731Z,4.00
2023-04-11T19:33:01.154Z,9.00
2023-04-11T19:35:29.043Z,4.70
2023-04-11T19:37:59.118Z,4.18
2023-04-11T19:40:27.567Z,3.45
2023-04-11T19:42:55.268Z,4.20
2023-04-11T19:45:23.118Z,4.13
2023-04-11T19:47:50.724Z,4.38
2023-04-11T19:50:18.422Z,4.40
2023-04-11T19:52:46.018Z,3.92
2023-04-11T19:55:14.931Z,4.10
2023-04-11T19:57:43.489Z,4.10
2023-04-11T20:00:13.706Z,4.10
2023-04-11T20:02:45.032Z,4.35
2023-04-11T20:05:13.537Z,4.38
2023-04-11T20:07:42.274Z,17.13
2023-04-11T20:10:11.010Z,6.23
2023-04-11T20:12:40.004Z,5.95
2023-04-11T20:15:09.132Z,4.90
2023-04-11T20:17:36.682Z,5.70
2023-04-11T20:20:08.372Z,4.72
2023-04-11T20:22:38.098Z,5.10
2023-04-11T20:25:07.328Z,5.30
2023-04-11T20:27:34.997Z,5.28
2023-04-11T20:30:07.760Z,5.15
2023-04-11T20:32:35.467Z,5.03
2023-04-11T20:35:03.269Z,5.20
2023-04-11T20:37:31.728Z,4.90
2023-04-11T20:39:59.578Z,5.10
2023-04-11T20:42:27.723Z,5.00
2023-04-11T20:44:57.960Z,5.03
2023-04-11T20:47:26.856Z,4.80
2023-04-11T20:49:55.999Z,5.60
2023-04-11T20:52:23.535Z,5.55
2023-04-11T20:54:51.090Z,5.65
2023-04-11T20:57:18.645Z,7.13
2023-04-11T20:59:46.454Z,5.60
2023-04-11T21:02:14.112Z,5.07
2023-04-11T21:04:43.393Z,5.10
2023-04-11T21:07:10.961Z,4.75
2023-04-11T21:09:38.509Z,5.25
2023-04-11T21:12:06.342Z,5.30
2023-04-11T21:14:34.789Z,5.63
2023-04-11T21:17:02.387Z,6.05
2023-04-11T21:19:29.949Z,6.10
2023-04-11T21:21:59.959Z,5.72
2023-04-11T21:24:27.626Z,5.67
2023-04-11T21:26:55.142Z,5.90
2023-04-11T21:29:22.701Z,5.78
2023-04-11T21:31:50.350Z,5.22
2023-04-11T21:34:17.993Z,5.68
2023-04-11T21:36:45.773Z,5.20
2023-04-11T21:39:14.602Z,4.93
2023-04-11T21:41:42.177Z,5.47
2023-04-11T21:44:09.668Z,4.93
2023-04-11T21:46:37.265Z,4.95
2023-04-11T21:49:04.852Z,5.20
2023-04-11T21:51:32.369Z,5.50
2023-04-11T21:53:59.943Z,4.85
2023-04-11T21:56:28.791Z,5.40
2023-04-11T21:58:56.302Z,5.60
2023-04-11T22:01:24.030Z,5.33
2023-04-11T22:03:52.084Z,5.47
2023-04-11T22:06:19.864Z,5.68
2023-04-11T22:08:50.269Z,6.28
2023-04-11T22:11:17.969Z,5.13
2023-04-11T22:13:47.197Z,6.13
2023-04-11T22:16:14.901Z,5.65
2023-04-11T22:18:48.893Z,6.22
2023-04-11T22:21:19.331Z,6.50
2023-04-11T22:23:48.547Z,6.13
2023-04-11T22:26:16.439Z,5.70
2023-04-11T22:28:45.358Z,6.32
2023-04-11T22:31:14.539Z,6.40
2023-04-11T22:33:42.172Z,5.78
2023-04-11T22:36:10.577Z,6.25
2023-04-11T22:38:39.093Z,6.00
2023-04-11T22:41:07.347Z,5.82
2023-04-11T22:43:34.871Z,5.68
2023-04-11T22:46:02.466Z,6.15
2023-04-11T22:48:31.480Z,6.70
2023-04-11T22:50:59.923Z,6.03
2023-04-11T22:53:27.818Z,6.85
2023-04-11T22:55:56.374Z,7.35
2023-04-11T22:58:23.927Z,6.70
2023-04-11T23:00:51.444Z,7.80
2023-04-11T23:03:19.210Z,7.20
2023-04-11T23:05:48.122Z,8.02
2023-04-11T23:08:15.678Z,8.02
2023-04-11T23:10:43.342Z,7.82
2023-04-11T23:13:10.889Z,8.15
2023-04-11T23:15:39.169Z,9.50
2023-04-11T23:18:06.787Z,8.70
2023-04-11T23:20:35.358Z,8.73
2023-04-11T23:23:04.519Z,10.07
2023-04-11T23:25:32.109Z,9.45
2023-04-11T23:27:59.714Z,10.10
2023-04-11T23:30:27.324Z,9.88
2023-04-11T23:32:55.177Z,9.73
2023-04-11T23:35:23.635Z,9.00
2023-04-11T23:37:51.809Z,9.15
2023-04-11T23:40:21.274Z,10.27
2023-04-11T23:42:48.945Z,9.00
2023-04-11T23:45:20.385Z,8.43
2023-04-11T23:47:48.267Z,8.40
2023-04-11T23:50:15.890Z,9.60
2023-04-11T23:52:43.833Z,8.43
2023-04-11T23:55:13.162Z,8.52
2023-04-11T23:57:42.072Z,8.85
